Time;durP1;ratioP1;P1;durP2;ratioP2;P2;SDS_P1;SDS_P2;PMS_P1;PMS_P2;Temp;Humidity;BMP_temperature;BMP_pressure;BME280_temperature;BME280_humidity;BME280_pressure;Samples;Min_cycle;Max_cycle;Signal;HPM_P1;HPM_P2
2021/11/26 00:00:58;;;;;;;56.93;34.67;;;3.90;99.90;;;;;;5014573;28;20403;-61
2021/11/26 00:03:25;;;;;;;53.93;33.63;;;3.70;99.90;;;;;;5014688;28;20430;-60
2021/11/26 00:05:51;;;;;;;49.73;31.87;;;3.80;99.90;;;;;;5015011;28;20469;-62
2021/11/26 00:08:16;;;;;;;55.93;34.93;;;3.70;99.90;;;;;;5014515;28;20203;-60
2021/11/26 00:10:42;;;;;;;52.30;31.37;;;3.90;99.90;;;;;;5014570;28;20258;-58
2021/11/26 00:13:10;;;;;;;62.40;35.63;;;3.80;99.90;;;;;;4996955;28;20180;-60
2021/11/26 00:15:38;;;;;;;48.60;30.33;;;3.70;99.90;;;;;;5014629;28;20550;-60
2021/11/26 00:18:07;;;;;;;53.80;35.30;;;3.70;99.90;;;;;;5014533;28;20434;-58
2021/11/26 00:20:34;;;;;;;56.70;34.87;;;3.80;99.90;;;;;;5014439;28;20450;-61
2021/11/26 00:22:59;;;;;;;53.43;32.30;;;3.60;99.90;;;;;;5010945;28;20431;-61
2021/11/26 00:25:25;;;;;;;47.73;31.37;;;3.70;99.90;;;;;;5005462;28;20964;-59
2021/11/26 00:27:51;;;;;;;54.87;36.23;;;3.70;99.90;;;;;;5014105;28;20219;-60
2021/11/26 00:30:17;;;;;;;45.67;29.37;;;3.90;99.90;;;;;;5014476;28;20195;-60
2021/11/26 00:32:44;;;;;;;47.03;30.47;;;3.80;99.90;;;;;;5013792;28;20411;-60
2021/11/26 00:35:10;;;;;;;51.50;31.70;;;3.70;99.90;;;;;;4997262;28;20425;-56
2021/11/26 00:37:35;;;;;;;50.00;31.87;;;3.80;99.90;;;;;;4996777;28;20838;-59
2021/11/26 00:40:01;;;;;;;56.57;34.83;;;3.90;99.90;;;;;;5013631;28;20211;-58
2021/11/26 00:42:27;;;;;;;54.10;31.70;;;3.90;99.90;;;;;;4996539;28;20633;-58
2021/11/26 00:44:52;;;;;;;48.17;32.63;;;3.90;99.90;;;;;;5014259;28;20555;-59
2021/11/26 00:47:18;;;;;;;43.00;28.23;;;4.00;99.90;;;;;;5013826;28;20198;-58
2021/11/26 00:49:44;;;;;;;50.40;32.60;;;4.00;99.90;;;;;;5013958;28;20180;-59
2021/11/26 00:52:09;;;;;;;53.97;31.63;;;4.10;99.90;;;;;;5014365;28;20179;-58
2021/11/26 00:54:36;;;;;;;62.00;37.20;;;4.10;99.90;;;;;;4995941;28;20172;-61
2021/11/26 00:57:06;;;;;;;52.00;34.47;;;4.10;99.90;;;;;;5013776;28;20571;-60
2021/11/26 00:59:32;;;;;;;53.47;34.03;;;4.10;99.90;;;;;;5013781;28;20454;-59
2021/11/26 01:01:58;;;;;;;53.40;33.70;;;4.10;99.90;;;;;;5013362;28;20415;-59
2021/11/26 01:04:23;;;;;;;55.80;33.90;;;4.10;99.90;;;;;;5013812;28;20203;-59
2021/11/26 01:06:49;;;;;;;51.50;33.50;;;4.10;99.90;;;;;;5013697;28;20641;-58
2021/11/26 01:09:14;;;;;;;46.70;31.77;;;3.80;99.90;;;;;;5012835;28;20207;-59
2021/11/26 01:11:40;;;;;;;51.83;34.20;;;3.90;99.90;;;;;;5013568;28;20176;-58
2021/11/26 01:14:06;;;;;;;53.30;35.30;;;4.00;99.90;;;;;;5010382;28;20573;-59
2021/11/26 01:16:31;;;;;;;57.40;36.60;;;4.20;99.90;;;;;;5013233;28;20524;-59
2021/11/26 01:18:57;;;;;;;52.90;34.30;;;4.10;99.90;;;;;;5013341;28;20200;-60
2021/11/26 01:21:22;;;;;;;53.37;32.90;;;4.20;99.90;;;;;;5013358;28;20175;-60
2021/11/26 01:23:48;;;;;;;50.90;33.17;;;4.10;99.90;;;;;;5013526;28;20168;-60
2021/11/26 01:26:14;;;;;;;45.40;30.77;;;4.00;99.90;;;;;;5013470;28;20199;-59
2021/11/26 01:28:39;;;;;;;53.67;33.80;;;4.20;99.90;;;;;;5013376;28;20226;-59
2021/11/26 01:31:06;;;;;;;48.70;33.50;;;4.10;99.90;;;;;;5013341;28;20664;-59
2021/11/26 01:33:31;;;;;;;55.37;34.03;;;3.90;99.90;;;;;;5013695;28;20176;-58
2021/11/26 01:35:57;;;;;;;53.83;33.73;;;3.70;99.90;;;;;;5013588;28;20891;-58
2021/11/26 01:38:23;;;;;;;58.93;35.60;;;3.80;99.90;;;;;;5012608;28;20212;-59
2021/11/26 01:40:49;;;;;;;47.33;31.17;;;3.90;99.90;;;;;;5013405;28;20322;-60
2021/11/26 01:43:17;;;;;;;48.93;32.10;;;3.90;99.90;;;;;;5013233;28;20222;-60
2021/11/26 01:45:49;;;;;;;49.73;32.07;;;4.00;99.90;;;;;;5027952;23;20498;-54
2021/11/26 01:48:15;;;;;;;51.63;33.67;;;3.90;99.90;;;;;;5006877;28;20415;-52
2021/11/26 01:50:41;;;;;;;54.03;35.27;;;4.00;99.90;;;;;;4996182;28;20889;-53
2021/11/26 01:53:07;;;;;;;52.70;33.87;;;4.10;99.90;;;;;;4996367;28;20486;-54
2021/11/26 01:55:33;;;;;;;53.10;34.67;;;4.20;99.90;;;;;;4996204;28;20404;-51
2021/11/26 01:57:59;;;;;;;54.73;33.73;;;4.30;99.90;;;;;;4994601;28;20172;-52
2021/11/26 02:00:29;;;;;;;50.90;32.00;;;4.20;99.90;;;;;;4994626;28;20448;-51
2021/11/26 02:02:55;;;;;;;50.93;34.10;;;4.10;99.90;;;;;;4994246;28;20388;-53
2021/11/26 02:05:21;;;;;;;55.33;34.83;;;3.90;99.90;;;;;;4994427;28;20408;-53
2021/11/26 02:07:47;;;;;;;52.00;33.70;;;3.70;99.90;;;;;;4994712;28;20911;-53
2021/11/26 02:10:13;;;;;;;50.43;33.70;;;3.50;99.90;;;;;;4994801;28;20462;-55
2021/11/26 02:12:38;;;;;;;54.37;34.33;;;3.60;99.90;;;;;;4993358;28;20184;-52
2021/11/26 02:15:05;;;;;;;56.93;35.40;;;3.70;99.90;;;;;;4994701;28;20195;-52
2021/11/26 02:17:31;;;;;;;51.27;31.37;;;3.50;99.90;;;;;;5010638;28;20251;-57
2021/11/26 02:19:58;;;;;;;52.27;32.23;;;3.70;99.90;;;;;;5015718;28;20442;-54
2021/11/26 02:22:24;;;;;;;52.33;34.67;;;3.90;99.90;;;;;;5017234;28;20637;-52
2021/11/26 02:24:50;;;;;;;52.70;30.90;;;3.80;99.90;;;;;;5017370;28;20403;-53
2021/11/26 02:27:17;;;;;;;51.47;31.40;;;3.80;99.90;;;;;;5017444;28;20430;-52
2021/11/26 02:29:43;;;;;;;48.07;30.50;;;3.90;99.90;;;;;;5017426;28;20167;-52
2021/11/26 02:32:09;;;;;;;51.00;32.47;;;3.90;99.90;;;;;;5016645;28;20413;-55
2021/11/26 02:34:35;;;;;;;44.10;28.73;;;4.00;99.90;;;;;;5017567;28;20189;-52
2021/11/26 02:37:00;;;;;;;51.30;32.10;;;4.10;99.90;;;;;;5017275;28;20959;-52
2021/11/26 02:39:26;;;;;;;49.17;32.30;;;4.00;99.90;;;;;;5017239;28;20691;-55
2021/11/26 02:41:52;;;;;;;47.77;31.20;;;4.10;99.90;;;;;;5017127;28;20172;-53
2021/11/26 02:44:17;;;;;;;48.70;31.90;;;4.10;99.90;;;;;;5017111;28;20164;-54
2021/11/26 02:46:43;;;;;;;52.10;33.33;;;4.10;99.90;;;;;;5016158;28;20207;-51
2021/11/26 02:49:09;;;;;;;48.50;33.10;;;4.20;99.90;;;;;;5017358;28;20629;-51
2021/11/26 02:51:35;;;;;;;44.47;30.87;;;4.20;99.90;;;;;;5017035;28;20173;-53
2021/11/26 02:54:01;;;;;;;57.53;36.37;;;4.30;99.90;;;;;;5017377;28;20179;-54
2021/11/26 02:56:27;;;;;;;49.57;31.47;;;4.10;99.90;;;;;;4998873;28;20225;-52
2021/11/26 02:58:55;;;;;;;50.20;34.03;;;4.00;99.90;;;;;;5016890;28;20406;-53
2021/11/26 03:01:20;;;;;;;49.50;31.80;;;4.10;99.90;;;;;;5016916;28;20485;-51
2021/11/26 03:03:46;;;;;;;42.43;29.67;;;4.10;99.90;;;;;;5016340;28;20495;-53
2021/11/26 03:06:12;;;;;;;44.63;31.10;;;4.00;99.90;;;;;;5016863;28;20187;-53
2021/11/26 03:08:37;;;;;;;49.53;31.40;;;3.90;99.90;;;;;;5017278;28;20234;-51
2021/11/26 03:11:04;;;;;;;47.30;31.30;;;3.90;99.90;;;;;;5016755;28;20172;-55
2021/11/26 03:13:30;;;;;;;49.63;31.83;;;3.90;99.90;;;;;;5017220;28;20251;-56
2021/11/26 03:15:57;;;;;;;50.93;32.23;;;3.80;99.90;;;;;;5015598;28;20448;-54
2021/11/26 03:18:24;;;;;;;50.60;34.27;;;3.80;99.90;;;;;;5016598;28;20450;-52
2021/11/26 03:20:50;;;;;;;56.97;33.70;;;3.90;99.90;;;;;;5016566;28;20954;-52
2021/11/26 03:23:17;;;;;;;52.33;33.10;;;3.70;99.90;;;;;;5013353;28;20499;-55
2021/11/26 03:25:43;;;;;;;50.20;32.40;;;3.70;99.90;;;;;;4997515;28;20959;-55
2021/11/26 03:28:10;;;;;;;46.10;32.00;;;3.90;99.90;;;;;;4996653;28;20404;-52
2021/11/26 03:30:36;;;;;;;50.97;34.10;;;3.80;99.90;;;;;;4996727;28;20204;-54
2021/11/26 03:33:02;;;;;;;54.57;33.50;;;3.80;99.90;;;;;;4995727;28;20418;-54
2021/11/26 03:35:28;;;;;;;50.20;32.83;;;3.80;99.90;;;;;;4996625;28;20419;-54
2021/11/26 03:37:54;;;;;;;49.90;32.20;;;4.00;99.90;;;;;;4996678;28;20912;-51
2021/11/26 03:40:21;;;;;;;56.10;35.87;;;3.90;99.90;;;;;;4997106;28;20197;-52
2021/11/26 03:42:48;;;;;;;42.10;29.73;;;3.70;99.90;;;;;;4996955;28;20415;-52
2021/11/26 03:45:15;;;;;;;43.87;28.40;;;3.80;99.90;;;;;;4995976;28;20775;-54
2021/11/26 03:47:41;;;;;;;49.87;32.47;;;3.60;99.90;;;;;;5013239;28;20473;-53
2021/11/26 03:50:09;;;;;;;47.57;29.13;;;3.70;99.90;;;;;;5015945;28;20407;-55
2021/11/26 03:52:35;;;;;;;49.90;32.93;;;3.80;99.90;;;;;;5015852;28;20407;-52
2021/11/26 03:55:01;;;;;;;52.57;32.57;;;4.10;99.90;;;;;;5015469;28;20461;-52
2021/11/26 03:57:27;;;;;;;45.33;30.47;;;4.10;99.90;;;;;;5015659;28;20466;-55
2021/11/26 03:59:52;;;;;;;46.30;29.50;;;4.20;99.90;;;;;;5015604;28;20474;-54
2021/11/26 04:02:18;;;;;;;47.57;29.37;;;4.20;99.90;;;;;;5015277;28;20172;-54
2021/11/26 04:04:44;;;;;;;47.20;31.73;;;4.10;99.90;;;;;;5015718;28;20219;-52
2021/11/26 04:07:09;;;;;;;50.53;32.07;;;4.20;99.90;;;;;;5015511;28;20669;-52
2021/11/26 04:09:35;;;;;;;55.60;37.30;;;4.30;99.90;;;;;;5015254;28;20637;-54
2021/11/26 04:12:00;;;;;;;49.53;31.47;;;4.20;99.90;;;;;;5015887;28;20175;-52
2021/11/26 04:14:26;;;;;;;48.50;30.67;;;4.20;99.90;;;;;;5015387;28;20199;-54
2021/11/26 04:16:52;;;;;;;45.43;29.80;;;4.20;99.90;;;;;;5015335;28;20204;-52
2021/11/26 04:19:18;;;;;;;40.47;28.23;;;4.20;99.90;;;;;;5014831;28;20191;-52
2021/11/26 04:21:44;;;;;;;49.80;32.33;;;4.20;99.90;;;;;;5015218;28;20958;-52
2021/11/26 04:24:10;;;;;;;47.13;31.00;;;4.20;99.90;;;;;;5014873;28;20175;-52
2021/11/26 04:26:36;;;;;;;48.10;32.47;;;4.30;99.90;;;;;;5015416;28;20521;-55
2021/11/26 04:29:02;;;;;;;50.37;32.83;;;4.20;99.90;;;;;;5015012;28;20462;-55
2021/11/26 04:31:27;;;;;;;54.53;33.47;;;4.00;99.90;;;;;;5014376;28;20609;-51
2021/11/26 04:33:54;;;;;;;51.30;32.33;;;3.90;99.90;;;;;;5014705;28;20841;-54
2021/11/26 04:36:20;;;;;;;46.83;30.00;;;4.10;99.90;;;;;;5016044;28;20657;-55
2021/11/26 04:38:46;;;;;;;48.27;29.80;;;4.10;99.90;;;;;;5014041;28;20829;-51
2021/11/26 04:41:12;;;;;;;54.00;35.90;;;3.90;99.90;;;;;;5004189;28;20411;-54
2021/11/26 04:43:37;;;;;;;49.50;31.70;;;3.90;99.90;;;;;;5013922;28;20160;-52
2021/11/26 04:46:03;;;;;;;53.63;32.77;;;3.90;99.90;;;;;;5014479;28;20469;-52
2021/11/26 04:48:29;;;;;;;60.50;34.30;;;3.90;99.90;;;;;;5014475;28;20211;-53
2021/11/26 04:50:55;;;;;;;50.17;32.40;;;4.00;99.90;;;;;;5014304;28;20512;-54
2021/11/26 04:53:21;;;;;;;54.37;32.27;;;4.10;99.90;;;;;;5014433;28;20516;-52
2021/11/26 04:55:47;;;;;;;54.17;34.67;;;4.10;99.90;;;;;;5014277;28;20423;-52
2021/11/26 04:58:13;;;;;;;52.80;32.40;;;4.00;99.90;;;;;;5013939;28;20178;-53
2021/11/26 05:00:39;;;;;;;54.00;33.77;;;4.00;99.90;;;;;;5014065;28;20549;-53
2021/11/26 05:03:05;;;;;;;53.17;33.47;;;4.00;99.90;;;;;;5013804;28;20183;-51
2021/11/26 05:05:32;;;;;;;52.27;33.80;;;4.00;99.90;;;;;;5013785;28;20407;-53
2021/11/26 05:07:57;;;;;;;60.80;34.97;;;4.00;99.90;;;;;;5014085;28;20418;-54
2021/11/26 05:10:24;;;;;;;52.67;34.07;;;4.10;99.90;;;;;;5014432;28;20403;-51
2021/11/26 05:12:53;;;;;;;45.63;29.37;;;4.20;99.90;;;;;;5013882;28;20411;-60
2021/11/26 05:15:26;;;;;;;58.87;34.37;;;4.30;99.90;;;;;;5013744;28;20541;-53
2021/11/26 05:17:59;;;;;;;49.40;32.73;;;4.30;99.90;;;;;;5013381;28;20407;-60
2021/11/26 05:20:27;;;;;;;48.67;33.00;;;4.10;99.90;;;;;;5014141;28;21034;-59
2021/11/26 05:22:53;;;;;;;53.77;32.97;;;4.10;99.90;;;;;;5013702;28;20489;-58
2021/11/26 05:25:19;;;;;;;57.67;32.53;;;4.00;99.90;;;;;;5013675;28;20399;-50
2021/11/26 05:27:45;;;;;;;50.43;32.70;;;4.00;99.90;;;;;;5013444;28;20427;-50
2021/11/26 05:30:12;;;;;;;48.43;30.67;;;4.00;99.90;;;;;;5009235;28;20782;-53
2021/11/26 05:32:38;;;;;;;55.80;34.63;;;4.10;99.90;;;;;;4993759;28;20172;-53
2021/11/26 05:35:09;;;;;;;56.77;33.40;;;4.00;99.90;;;;;;4994316;28;20408;-54
2021/11/26 05:37:35;;;;;;;54.77;33.90;;;3.90;99.90;;;;;;4994040;28;20428;-60
2021/11/26 05:40:01;;;;;;;51.30;32.43;;;3.90;99.90;;;;;;4994130;28;20459;-61
2021/11/26 05:42:27;;;;;;;50.00;33.00;;;4.00;99.90;;;;;;4994041;28;20165;-60
2021/11/26 05:44:52;;;;;;;55.30;34.77;;;4.10;99.90;;;;;;4993764;28;20419;-52
2021/11/26 05:47:18;;;;;;;50.53;30.37;;;4.20;99.90;;;;;;5008254;28;20282;-59
2021/11/26 05:49:43;;;;;;;50.53;34.20;;;4.20;99.90;;;;;;5013555;28;20179;-60
2021/11/26 05:52:09;;;;;;;51.13;33.57;;;4.30;99.90;;;;;;5013784;28;20176;-60
2021/11/26 05:54:36;;;;;;;51.40;33.47;;;4.40;99.90;;;;;;5014397;28;20226;-53
2021/11/26 05:57:03;;;;;;;52.30;33.23;;;4.60;99.90;;;;;;5017437;28;20195;-55
2021/11/26 05:59:28;;;;;;;53.93;32.97;;;4.20;99.90;;;;;;5017253;28;20453;-52
2021/11/26 06:01:54;;;;;;;48.27;30.63;;;3.90;99.90;;;;;;5016729;28;20410;-52
2021/11/26 06:04:19;;;;;;;56.83;34.80;;;4.00;99.90;;;;;;5017235;28;20203;-52
2021/11/26 06:06:45;;;;;;;47.30;31.30;;;4.10;99.90;;;;;;5017427;28;20599;-51
2021/11/26 06:09:10;;;;;;;49.20;30.63;;;4.20;99.90;;;;;;5017735;28;20609;-53
2021/11/26 06:11:36;;;;;;;45.27;30.70;;;4.20;99.90;;;;;;5017304;28;20210;-52
2021/11/26 06:14:02;;;;;;;49.13;31.33;;;4.20;99.90;;;;;;5017224;28;20219;-53
2021/11/26 06:16:28;;;;;;;40.00;26.80;;;4.30;99.90;;;;;;5017031;28;20200;-55
2021/11/26 06:18:53;;;;;;;41.33;27.00;;;4.30;99.90;;;;;;5016633;28;20168;-52
2021/11/26 06:21:19;;;;;;;42.07;27.20;;;4.30;99.90;;;;;;5017529;28;20921;-53
2021/11/26 06:23:45;;;;;;;49.90;29.80;;;4.30;99.90;;;;;;5016824;28;20168;-52
2021/11/26 06:26:10;;;;;;;41.97;27.70;;;4.40;99.90;;;;;;5017015;28;20657;-52
2021/11/26 06:28:36;;;;;;;42.10;26.23;;;4.50;99.90;;;;;;5016747;28;20160;-51
2021/11/26 06:31:02;;;;;;;39.37;26.53;;;4.60;99.90;;;;;;5016677;28;20175;-54
2021/11/26 06:33:27;;;;;;;45.20;28.80;;;4.70;99.90;;;;;;5016336;28;20172;-55
2021/11/26 06:35:53;;;;;;;47.50;29.80;;;4.70;99.90;;;;;;5016500;28;20239;-52
2021/11/26 06:38:19;;;;;;;46.43;29.70;;;4.70;99.90;;;;;;5016580;28;20196;-52
2021/11/26 06:40:44;;;;;;;47.13;29.90;;;4.60;99.90;;;;;;5016385;28;20274;-52
2021/11/26 06:43:10;;;;;;;47.53;28.30;;;4.50;99.90;;;;;;5016428;28;20706;-53
2021/11/26 06:45:36;;;;;;;46.60;29.30;;;4.50;99.90;;;;;;5016137;28;20161;-54
2021/11/26 06:48:01;;;;;;;47.27;28.70;;;4.60;99.90;;;;;;5015826;28;20195;-52
2021/11/26 06:50:27;;;;;;;47.20;31.27;;;4.70;99.90;;;;;;5016647;28;20168;-53
2021/11/26 06:52:53;;;;;;;43.80;29.30;;;4.70;99.90;;;;;;5016416;28;20175;-53
2021/11/26 06:55:19;;;;;;;45.50;28.70;;;4.70;99.90;;;;;;5016201;28;20191;-55
2021/11/26 06:57:44;;;;;;;49.20;30.67;;;4.80;99.90;;;;;;5016408;28;20279;-55
2021/11/26 07:00:15;;;;;;;44.93;29.10;;;4.70;99.90;;;;;;5015896;28;20208;-52
2021/11/26 07:02:40;;;;;;;45.27;27.10;;;4.60;99.90;;;;;;5015474;28;20494;-52
2021/11/26 07:05:07;;;;;;;43.23;27.53;;;4.40;99.90;;;;;;4998264;28;20438;-53
2021/11/26 07:07:33;;;;;;;44.80;28.63;;;4.30;99.90;;;;;;5014874;28;20191;-52
2021/11/26 07:09:58;;;;;;;48.07;29.20;;;4.30;99.90;;;;;;5016293;28;20407;-53
2021/11/26 07:12:24;;;;;;;45.37;29.53;;;4.30;99.90;;;;;;5016293;28;20176;-53
2021/11/26 07:14:49;;;;;;;49.03;28.97;;;4.20;99.90;;;;;;5016454;28;20192;-56
2021/11/26 07:17:15;;;;;;;49.43;28.80;;;4.30;99.90;;;;;;5015137;28;20253;-52
2021/11/26 07:19:46;;;;;;;53.80;31.97;;;4.50;99.90;;;;;;5015712;28;20214;-53
2021/11/26 07:22:12;;;;;;;40.27;26.53;;;4.60;99.90;;;;;;5015780;28;20164;-61
2021/11/26 07:24:37;;;;;;;39.07;27.40;;;4.60;99.90;;;;;;5016064;28;20409;-54
2021/11/26 07:27:03;;;;;;;45.63;30.20;;;4.70;99.90;;;;;;5015546;28;20431;-53
2021/11/26 07:29:29;;;;;;;42.83;26.50;;;4.60;99.90;;;;;;5015807;28;20187;-57
2021/11/26 07:31:55;;;;;;;43.07;28.33;;;4.60;99.90;;;;;;5010673;28;20432;-61
2021/11/26 07:34:21;;;;;;;43.60;27.70;;;4.60;99.90;;;;;;5004472;28;20293;-52
2021/11/26 07:36:46;;;;;;;41.40;26.50;;;4.60;99.90;;;;;;4995916;28;20199;-55
2021/11/26 07:39:12;;;;;;;42.80;27.87;;;4.70;99.90;;;;;;4996085;28;20196;-59
2021/11/26 07:41:38;;;;;;;45.27;27.50;;;4.70;99.90;;;;;;4995736;28;20579;-61
2021/11/26 07:44:05;;;;;;;43.20;27.37;;;4.80;99.90;;;;;;4995938;28;20173;-54
2021/11/26 07:46:30;;;;;;;45.27;28.40;;;4.80;99.90;;;;;;5024206;23;20568;-58
2021/11/26 07:48:56;;;;;;;46.10;29.07;;;4.90;99.90;;;;;;4991486;28;20412;-57
2021/11/26 07:51:23;;;;;;;48.57;29.47;;;4.90;99.90;;;;;;4957193;28;20166;-59
2021/11/26 07:53:49;;;;;;;42.97;27.93;;;4.80;99.90;;;;;;4975544;28;20174;-58
2021/11/26 07:56:15;;;;;;;47.37;30.20;;;4.80;99.90;;;;;;4958424;28;20556;-58
2021/11/26 07:58:41;;;;;;;48.10;29.57;;;4.70;99.90;;;;;;4975858;28;20173;-58
2021/11/26 08:01:07;;;;;;;44.00;28.03;;;4.70;99.90;;;;;;4975478;28;20709;-57
2021/11/26 08:03:32;;;;;;;42.43;27.60;;;4.70;99.90;;;;;;4975028;28;20541;-59
2021/11/26 08:06:00;;;;;;;43.33;28.97;;;4.70;99.90;;;;;;4975687;28;20405;-61
2021/11/26 08:08:25;;;;;;;41.40;27.23;;;4.80;99.90;;;;;;4975779;28;20197;-59
2021/11/26 08:10:51;;;;;;;47.97;29.63;;;4.80;99.90;;;;;;4975659;28;20459;-61
2021/11/26 08:13:17;;;;;;;47.73;28.10;;;4.70;99.90;;;;;;4975628;28;20173;-60
2021/11/26 08:15:43;;;;;;;44.23;28.80;;;4.50;99.90;;;;;;4957889;28;20208;-59
2021/11/26 08:18:08;;;;;;;49.30;30.23;;;4.50;99.90;;;;;;5005054;28;20192;-59
2021/11/26 08:20:37;;;;;;;45.33;29.03;;;4.50;99.90;;;;;;5014532;28;20884;-61
2021/11/26 08:23:04;;;;;;;49.37;31.10;;;4.60;99.90;;;;;;5014718;28;20196;-59
2021/11/26 08:25:29;;;;;;;51.53;32.23;;;4.70;99.90;;;;;;5014228;28;20888;-59
2021/11/26 08:27:56;;;;;;;47.80;31.40;;;4.70;99.90;;;;;;4996748;28;20430;-62
2021/11/26 08:30:22;;;;;;;52.33;28.60;;;4.70;99.90;;;;;;5014408;28;20230;-59
2021/11/26 08:32:49;;;;;;;43.87;29.30;;;4.60;99.90;;;;;;5013940;28;20403;-60
2021/11/26 08:35:15;;;;;;;45.13;28.40;;;4.70;99.90;;;;;;5014417;28;20415;-58
2021/11/26 08:37:41;;;;;;;43.27;27.73;;;4.80;99.90;;;;;;5014471;28;20480;-58
2021/11/26 08:40:08;;;;;;;48.47;30.93;;;4.90;99.90;;;;;;5014284;28;20188;-58
2021/11/26 08:42:33;;;;;;;46.73;29.67;;;4.90;99.90;;;;;;5013987;28;20262;-56
2021/11/26 08:44:59;;;;;;;43.83;28.43;;;4.80;99.90;;;;;;4996413;28;20485;-61
2021/11/26 08:47:27;;;;;;;48.43;30.30;;;4.70;99.90;;;;;;5013702;28;20474;-59
2021/11/26 08:49:52;;;;;;;45.03;29.07;;;4.70;99.90;;;;;;5014206;28;20415;-59
2021/11/26 08:52:19;;;;;;;45.07;28.03;;;4.80;99.90;;;;;;5014082;28;20407;-58
2021/11/26 08:54:46;;;;;;;47.33;30.20;;;4.90;99.90;;;;;;5013878;28;20204;-60
2021/11/26 08:57:13;;;;;;;46.70;29.73;;;5.00;99.90;;;;;;5014527;28;20435;-58
2021/11/26 08:59:38;;;;;;;47.30;30.03;;;4.80;99.90;;;;;;5013326;28;20447;-60
2021/11/26 09:02:04;;;;;;;45.70;27.77;;;4.80;99.90;;;;;;5013181;28;20421;-59
2021/11/26 09:04:31;;;;;;;47.80;30.10;;;4.80;99.90;;;;;;5013680;28;20422;-57
2021/11/26 09:06:56;;;;;;;46.77;31.37;;;4.70;99.90;;;;;;5013300;28;20212;-59
2021/11/26 09:09:23;;;;;;;41.40;27.30;;;4.70;99.90;;;;;;5013564;28;20399;-58
2021/11/26 09:11:50;;;;;;;43.87;28.57;;;4.70;99.90;;;;;;5013670;28;20172;-59
2021/11/26 09:14:17;;;;;;;47.53;29.43;;;4.60;99.90;;;;;;5013585;28;20407;-60
2021/11/26 09:16:42;;;;;;;47.33;31.03;;;4.70;99.90;;;;;;5012963;28;20426;-57
2021/11/26 09:19:08;;;;;;;48.57;29.03;;;4.80;99.90;;;;;;5013573;28;20457;-57
2021/11/26 09:21:34;;;;;;;44.97;29.63;;;4.80;99.90;;;;;;5013390;28;20646;-59
2021/11/26 09:24:00;;;;;;;50.33;29.77;;;4.90;99.90;;;;;;5013579;28;20239;-60
2021/11/26 09:26:26;;;;;;;47.53;29.73;;;4.90;99.90;;;;;;4962784;28;20169;-62
2021/11/26 09:28:53;;;;;;;52.43;31.07;;;4.80;99.90;;;;;;4975011;28;20411;-63
2021/11/26 09:31:19;;;;;;;47.33;29.83;;;4.70;99.90;;;;;;4978435;28;20416;-61
2021/11/26 09:33:44;;;;;;;49.57;30.63;;;4.90;99.90;;;;;;4977628;28;20865;-62
2021/11/26 09:36:11;;;;;;;44.53;28.47;;;4.80;99.90;;;;;;4960978;28;20209;-63
2021/11/26 09:38:39;;;;;;;46.10;30.37;;;4.90;99.90;;;;;;4978274;28;20169;-61
2021/11/26 09:41:07;;;;;;;47.27;31.10;;;4.60;99.90;;;;;;4978059;28;20455;-61
2021/11/26 09:43:34;;;;;;;42.20;29.57;;;4.90;99.90;;;;;;4978040;28;20463;-61
2021/11/26 09:46:02;;;;;;;44.80;29.03;;;5.00;99.90;;;;;;4978361;28;20496;-62
2021/11/26 09:48:28;;;;;;;43.60;27.17;;;5.00;99.90;;;;;;5013309;28;20474;-62
2021/11/26 09:50:54;;;;;;;46.67;28.17;;;4.90;99.90;;;;;;5017402;28;20426;-60
2021/11/26 09:53:23;;;;;;;42.97;27.97;;;4.90;99.90;;;;;;5017225;28;20411;-59
2021/11/26 09:55:52;;;;;;;50.30;30.77;;;5.10;99.90;;;;;;5017179;28;20176;-60
2021/11/26 09:58:20;;;;;;;49.37;30.37;;;5.10;99.90;;;;;;5017060;28;20431;-62
2021/11/26 10:00:46;;;;;;;46.13;31.47;;;5.20;99.90;;;;;;4999295;28;20458;-59
2021/11/26 10:03:12;;;;;;;39.93;27.50;;;5.30;99.90;;;;;;5016393;28;20493;-60
2021/11/26 10:05:38;;;;;;;49.57;33.30;;;5.30;99.90;;;;;;5017107;28;20954;-62
2021/11/26 10:08:05;;;;;;;49.97;31.97;;;5.30;99.90;;;;;;5017277;28;20192;-61
2021/11/26 10:10:36;;;;;;;49.70;32.00;;;5.30;99.90;;;;;;4998698;28;20461;-63
2021/11/26 10:13:22;;;;;;;51.07;30.93;;;5.30;99.90;;;;;;5017260;28;20482;-63
2021/11/26 10:15:53;;;;;;;52.23;33.37;;;5.30;99.90;;;;;;5016752;28;20426;-61
2021/11/26 10:18:27;;;;;;;48.17;30.80;;;5.30;99.90;;;;;;5016407;28;20435;-63
2021/11/26 10:21:09;;;;;;;44.33;28.57;;;5.40;99.90;;;;;;4999854;28;20538;-64
2021/11/26 10:23:41;;;;;;;48.43;31.97;;;5.60;99.90;;;;;;5017002;28;20414;-58
2021/11/26 10:26:26;;;;;;;49.83;31.53;;;5.50;99.90;;;;;;5016867;28;20747;-60
2021/11/26 10:29:00;;;;;;;49.87;31.80;;;5.60;99.90;;;;;;4999276;28;20486;-62
2021/11/26 10:31:35;;;;;;;46.92;32.20;;;5.40;99.90;;;;;;5016219;28;20490;-62
2021/11/26 10:34:03;;;;;;;49.03;32.60;;;5.40;99.90;;;;;;5016159;28;20608;-60
2021/11/26 10:36:42;;;;;;;51.43;32.00;;;5.50;99.90;;;;;;5016350;28;20524;-63
2021/11/26 10:39:18;;;;;;;46.70;31.07;;;5.60;99.90;;;;;;5016477;28;20395;-62
2021/11/26 10:41:53;;;;;;;47.97;31.00;;;5.40;99.90;;;;;;4985774;28;20410;-59
2021/11/26 10:44:25;;;;;;;46.47;29.43;;;5.50;99.90;;;;;;4996978;28;20462;-63
2021/11/26 10:47:07;;;;;;;50.87;32.00;;;5.60;99.90;;;;;;5001154;28;20469;-62
2021/11/26 10:57:56;;;;;;;48.00;31.17;;;5.60;99.90;;;;;;5016519;28;20417;-63
2021/11/26 11:00:23;;;;;;;48.17;30.67;;;5.50;99.90;;;;;;5016384;28;20525;-64
2021/11/26 11:02:54;;;;;;;42.97;28.97;;;5.60;99.90;;;;;;5016076;28;20853;-64
2021/11/26 11:05:30;;;;;;;47.27;30.50;;;5.60;99.90;;;;;;5016755;28;20469;-64
2021/11/26 11:07:57;;;;;;;43.80;28.10;;;5.50;99.90;;;;;;5016470;28;20419;-64
2021/11/26 11:10:31;;;;;;;48.13;29.30;;;5.40;99.90;;;;;;5016869;28;20498;-64
2021/11/26 11:12:59;;;;;;;48.23;30.37;;;5.60;99.90;;;;;;5017110;28;20469;-64
2021/11/26 11:15:25;;;;;;;47.50;30.60;;;5.60;99.90;;;;;;5016626;28;20411;-64
2021/11/26 11:17:51;;;;;;;50.70;30.97;;;5.50;99.90;;;;;;4998056;28;20526;-64
2021/11/26 11:20:18;;;;;;;43.13;27.73;;;5.50;99.90;;;;;;5012081;28;20203;-63
2021/11/26 11:22:45;;;;;;;48.33;29.77;;;5.40;99.90;;;;;;4978515;28;20427;-63
2021/11/26 11:25:14;;;;;;;43.10;29.13;;;5.30;99.90;;;;;;4976888;28;20412;-64
2021/11/26 11:27:40;;;;;;;46.70;30.20;;;5.40;99.90;;;;;;4976568;28;20428;-64
2021/11/26 11:30:08;;;;;;;44.73;28.23;;;5.50;99.90;;;;;;4976642;28;20405;-63
2021/11/26 11:32:35;;;;;;;42.23;27.67;;;5.50;99.90;;;;;;4976569;28;20180;-64
2021/11/26 11:35:04;;;;;;;43.67;29.27;;;5.60;99.90;;;;;;4976156;28;20499;-64
2021/11/26 11:37:30;;;;;;;48.67;29.63;;;5.60;99.90;;;;;;4976657;28;20433;-63
2021/11/26 11:40:06;;;;;;;44.03;28.93;;;5.70;99.90;;;;;;4976149;28;20956;-63
2021/11/26 11:42:36;;;;;;;44.10;29.00;;;5.90;99.90;;;;;;4976356;28;20189;-63
2021/11/26 11:45:03;;;;;;;43.20;26.73;;;5.80;99.90;;;;;;4976510;28;20405;-63
2021/11/26 11:47:31;;;;;;;41.87;25.90;;;5.80;99.90;;;;;;4978366;28;20549;-63
2021/11/26 11:50:10;;;;;;;40.40;26.00;;;5.70;99.90;;;;;;5014849;28;20787;-63
2021/11/26 11:52:52;;;;;;;44.80;26.83;;;5.80;99.90;;;;;;5014902;28;20383;-63
2021/11/26 11:55:24;;;;;;;42.13;25.90;;;6.00;99.90;;;;;;4998040;28;20395;-63
2021/11/26 11:57:55;;;;;;;45.20;26.80;;;5.90;99.90;;;;;;5014893;28;20435;-63
2021/11/26 12:00:21;;;;;;;36.57;24.30;;;5.90;99.90;;;;;;5014860;28;20442;-64
2021/11/26 12:02:48;;;;;;;41.23;26.00;;;5.80;99.90;;;;;;5014697;28;20411;-63
2021/11/26 12:05:25;;;;;;;39.27;25.60;;;5.90;99.90;;;;;;5014721;28;20172;-64
2021/11/26 12:08:03;;;;;;;44.17;26.73;;;5.80;99.90;;;;;;5015150;28;20415;-64
2021/11/26 12:10:28;;;;;;;37.53;24.10;;;5.90;99.90;;;;;;5001437;28;20492;-64
2021/11/26 12:12:56;;;;;;;40.83;28.27;;;5.90;99.90;;;;;;4977550;28;20420;-64
2021/11/26 12:15:24;;;;;;;41.77;25.20;;;5.90;99.90;;;;;;4995181;28;20174;-63
2021/11/26 12:17:58;;;;;;;39.17;24.57;;;6.00;99.90;;;;;;5007241;28;20936;-64
2021/11/26 12:20:26;;;;;;;41.67;24.67;;;5.90;99.90;;;;;;5014166;28;20810;-64
2021/11/26 12:23:04;;;;;;;35.20;22.93;;;5.90;99.90;;;;;;5014634;28;20421;-64
2021/11/26 12:25:45;;;;;;;39.17;26.27;;;6.00;99.90;;;;;;5014626;28;20391;-64
2021/11/26 12:28:22;;;;;;;36.30;23.73;;;6.10;99.90;;;;;;5015043;28;20787;-64
2021/11/26 12:31:06;;;;;;;37.23;24.90;;;6.10;99.90;;;;;;5014959;28;20395;-64
2021/11/26 12:33:33;;;;;;;35.80;23.57;;;6.30;99.90;;;;;;5014425;28;20740;-64
2021/11/26 12:36:14;;;;;;;40.90;24.50;;;6.20;99.90;;;;;;5015390;28;20442;-65
2021/11/26 12:38:41;;;;;;;37.80;23.60;;;6.00;99.90;;;;;;5016127;28;20379;-64
2021/11/26 12:41:11;;;;;;;40.43;24.83;;;6.00;99.90;;;;;;5015531;28;20439;-64
2021/11/26 12:43:48;;;;;;;37.10;24.40;;;6.00;99.90;;;;;;4999342;28;20424;-64